Time;durP1;ratioP1;P1;durP2;ratioP2;P2;SDS_P1;SDS_P2;PMS_P1;PMS_P2;Temp;Humidity;BMP_temperature;BMP_pressure;BME280_temperature;BME280_humidity;BME280_pressure;Samples;Min_cycle;Max_cycle;Signal;HPM_P1;HPM_P2
2022/11/22 00:02:06;;;;;;;4.22;3.10;;;;;;;18.31;45.95;99107.47;5026782;28;20025;-59
2022/11/22 00:04:32;;;;;;;4.50;2.58;;;;;;;18.30;45.83;99088.81;5027002;28;20053;-59
2022/11/22 00:06:57;;;;;;;4.63;3.80;;;;;;;18.31;46.11;99095.84;5026588;28;20048;-58
2022/11/22 00:09:22;;;;;;;3.92;2.97;;;;;;;18.30;46.16;99095.03;5026924;28;20032;-59
2022/11/22 00:11:47;;;;;;;4.38;3.10;;;;;;;18.30;45.72;99089.66;5026179;28;20022;-58
2022/11/22 00:14:13;;;;;;;3.97;2.97;;;;;;;18.29;45.95;99088.00;5027013;28;20022;-58
2022/11/22 00:16:38;;;;;;;3.58;2.35;;;;;;;18.30;45.62;99094.19;5025762;28;20025;-55
2022/11/22 00:19:03;;;;;;;4.28;3.17;;;;;;;18.29;46.10;99088.00;5026504;28;20033;-58
2022/11/22 00:21:28;;;;;;;3.05;2.45;;;;;;;18.30;45.95;99073.50;5026434;28;20057;-59
2022/11/22 00:23:57;;;;;;;4.32;2.92;;;;;;;18.15;45.75;99057.59;5008266;28;20443;-58
2022/11/22 00:26:23;;;;;;;3.35;2.75;;;;;;;18.27;45.87;99082.00;5026086;28;20049;-59
2022/11/22 00:28:48;;;;;;;4.05;2.78;;;;;;;18.21;45.79;99077.44;5008986;28;20036;-58
2022/11/22 00:31:14;;;;;;;4.53;2.80;;;;;;;18.27;45.80;99075.81;5026429;28;20045;-58
2022/11/22 00:33:39;;;;;;;3.88;2.72;;;;;;;18.28;45.93;99088.22;5026394;28;20487;-59
2022/11/22 00:36:04;;;;;;;3.70;2.70;;;;;;;18.17;45.96;99068.16;5026212;28;20029;-59
2022/11/22 00:38:30;;;;;;;4.13;2.42;;;;;;;18.27;45.93;99092.78;5026451;28;20030;-58
2022/11/22 00:40:55;;;;;;;2.63;2.42;;;;;;;18.27;45.83;99092.78;5025380;28;20038;-57
2022/11/22 00:43:20;;;;;;;3.70;2.30;;;;;;;18.24;45.66;99085.13;5026149;28;20045;-59
2022/11/22 00:45:45;;;;;;;5.15;2.50;;;;;;;18.26;45.65;99088.41;5025576;28;20034;-59
2022/11/22 00:48:10;;;;;;;3.38;2.45;;;;;;;18.25;45.81;99089.44;5026359;28;20044;-59
2022/11/22 00:50:36;;;;;;;3.17;2.30;;;;;;;18.23;45.60;99086.97;5025910;28;20118;-58
2022/11/22 00:53:01;;;;;;;4.47;2.78;;;;;;;18.24;46.02;99094.00;5025889;28;20034;-59
2022/11/22 00:55:26;;;;;;;3.70;2.47;;;;;;;18.25;45.94;99092.13;5025835;28;20041;-59
2022/11/22 00:57:51;;;;;;;3.85;2.50;;;;;;;18.23;45.92;99086.16;5025431;28;20057;-59
2022/11/22 01:00:17;;;;;;;3.60;2.58;;;;;;;18.21;45.91;99077.44;5025466;28;20040;-59
2022/11/22 01:02:42;;;;;;;4.10;2.70;;;;;;;18.20;45.88;99071.25;5025873;28;20036;-59
2022/11/22 01:05:08;;;;;;;3.58;2.63;;;;;;;18.22;45.81;99082.66;5025722;28;20045;-59
2022/11/22 01:07:33;;;;;;;3.30;2.42;;;;;;;18.22;45.64;99077.25;5025581;28;20030;-58
2022/11/22 01:09:58;;;;;;;4.85;2.72;;;;;;;18.23;45.76;99075.41;5025516;28;20025;-59
2022/11/22 01:12:23;;;;;;;3.72;2.47;;;;;;;18.23;45.94;99078.09;5024713;28;20029;-59
2022/11/22 01:14:49;;;;;;;3.38;2.67;;;;;;;18.22;45.84;99079.94;5025642;28;20080;-58
2022/11/22 01:17:14;;;;;;;3.33;2.75;;;;;;;18.22;45.87;99079.09;5025016;28;20675;-59
2022/11/22 01:19:39;;;;;;;3.67;2.40;;;;;;;18.22;45.94;99084.47;5025439;28;20029;-59
2022/11/22 01:22:04;;;;;;;3.20;2.35;;;;;;;18.22;45.87;99095.25;5025277;28;20030;-59
2022/11/22 01:24:30;;;;;;;3.63;2.10;;;;;;;18.21;45.91;99094.41;5025294;28;20072;-58
2022/11/22 01:26:55;;;;;;;3.25;2.30;;;;;;;18.21;45.83;99090.91;5024718;28;20113;-59
2022/11/22 01:29:20;;;;;;;3.58;2.60;;;;;;;18.19;45.89;99092.97;5025570;28;20030;-59
2022/11/22 01:31:45;;;;;;;3.45;2.80;;;;;;;18.20;45.63;99086.56;5025113;28;20057;-59
2022/11/22 01:34:11;;;;;;;4.13;2.30;;;;;;;18.19;45.75;99093.81;5025339;28;20026;-59
2022/11/22 01:36:36;;;;;;;4.22;2.38;;;;;;;18.17;45.60;99084.28;5025110;28;20084;-59
2022/11/22 01:39:02;;;;;;;3.85;2.42;;;;;;;18.19;45.87;99083.06;5025116;28;20028;-59
2022/11/22 01:41:27;;;;;;;4.25;2.40;;;;;;;18.19;45.65;99088.44;5024230;28;20061;-58
2022/11/22 01:43:52;;;;;;;3.20;2.13;;;;;;;18.17;45.21;99079.72;5024939;28;20026;-59
2022/11/22 01:46:44;;;;;;;3.45;2.10;;;;;;;18.18;45.76;99083.25;5024613;28;20022;-59
2022/11/22 01:49:29;;;;;;;3.08;2.25;;;;;;;18.18;45.56;99083.25;5022006;28;20064;-59
2022/11/22 01:51:59;;;;;;;3.22;2.22;;;;;;;18.18;45.71;99076.03;5024674;28;20100;-59
2022/11/22 01:54:26;;;;;;;3.08;2.28;;;;;;;18.18;45.88;99072.47;5024872;28;20033;-58
2022/11/22 01:56:56;;;;;;;4.72;2.83;;;;;;;18.17;45.87;99070.84;5006605;28;20025;-59
2022/11/22 01:59:24;;;;;;;2.40;2.20;;;;;;;18.17;45.46;99060.91;5007308;28;20022;-58
2022/11/22 02:01:50;;;;;;;2.97;2.00;;;;;;;18.11;45.83;99060.91;5024440;28;20033;-59
2022/11/22 02:04:16;;;;;;;2.60;1.92;;;;;;;18.16;45.68;99064.63;5024641;28;20045;-58
2022/11/22 02:06:54;;;;;;;2.60;2.10;;;;;;;18.15;45.55;99060.28;5006742;28;20034;-58
2022/11/22 02:09:19;;;;;;;3.10;2.08;;;;;;;18.16;45.61;99055.75;5024608;28;20106;-58
2022/11/22 02:11:50;;;;;;;3.22;2.20;;;;;;;18.16;45.70;99063.81;5023973;28;20030;-58
2022/11/22 02:14:18;;;;;;;3.25;2.10;;;;;;;18.07;45.66;99051.63;5006752;28;20096;-59
2022/11/22 02:16:44;;;;;;;2.80;1.75;;;;;;;18.15;45.81;99062.16;5023905;28;20037;-58
2022/11/22 02:19:15;;;;;;;3.65;2.00;;;;;;;18.15;45.48;99059.47;5006880;28;20049;-59
2022/11/22 02:21:41;;;;;;;3.13;2.33;;;;;;;18.15;45.58;99062.16;5006426;28;20085;-58
2022/11/22 02:24:17;;;;;;;3.50;1.92;;;;;;;18.15;45.57;99078.28;5023437;28;20053;-58
2022/11/22 02:26:42;;;;;;;3.53;2.13;;;;;;;18.14;45.69;99079.34;5023721;28;20030;-58
2022/11/22 02:29:07;;;;;;;3.15;1.85;;;;;;;18.14;45.72;99082.03;5024312;28;20040;-58
2022/11/22 02:31:41;;;;;;;3.17;2.10;;;;;;;18.13;45.73;99075.78;5023955;28;20467;-57
2022/11/22 02:34:08;;;;;;;3.38;1.88;;;;;;;18.14;45.67;99079.34;5004623;28;20046;-58
2022/11/22 02:36:37;;;;;;;3.03;1.90;;;;;;;18.13;45.44;99077.66;5004363;28;20165;-58
2022/11/22 02:39:03;;;;;;;2.50;1.95;;;;;;;18.13;45.55;99088.41;4987098;28;20085;-59
2022/11/22 02:41:28;;;;;;;2.47;1.77;;;;;;;18.13;45.44;99085.72;5002438;28;20034;-58
2022/11/22 02:43:53;;;;;;;2.33;1.67;;;;;;;18.13;45.72;99074.97;5004504;28;20522;-59
2022/11/22 02:46:22;;;;;;;3.33;1.90;;;;;;;18.14;45.66;99071.28;4986672;28;20045;-58
2022/11/22 02:48:48;;;;;;;2.58;1.83;;;;;;;18.12;45.50;99078.72;5004414;28;20033;-59
2022/11/22 02:51:15;;;;;;;2.63;1.90;;;;;;;18.11;45.53;99080.56;5004143;28;20026;-59
2022/11/22 02:53:48;;;;;;;3.75;2.10;;;;;;;18.12;45.76;99087.59;5004245;28;20142;-58
2022/11/22 02:56:14;;;;;;;2.90;2.05;;;;;;;18.04;45.33;99073.53;5003577;28;20029;-59
2022/11/22 02:58:39;;;;;;;3.17;2.10;;;;;;;18.10;45.71;99081.63;5004316;28;20062;-59
2022/11/22 03:01:04;;;;;;;2.60;1.98;;;;;;;18.11;45.50;99088.63;5004038;28;20092;-59
2022/11/22 03:03:31;;;;;;;3.03;2.20;;;;;;;18.11;45.51;99094.03;5018092;28;20072;-59
2022/11/22 03:05:56;;;;;;;3.63;2.15;;;;;;;18.11;45.48;99090.50;5023351;28;20156;-58
2022/11/22 03:08:21;;;;;;;2.95;1.90;;;;;;;18.11;45.77;99083.25;5023673;28;20530;-58
2022/11/22 03:10:46;;;;;;;2.95;1.73;;;;;;;18.11;45.51;99087.81;5023613;28;20049;-58
2022/11/22 03:13:12;;;;;;;1.88;1.60;;;;;;;18.10;45.88;99088.84;5023405;28;20030;-58
2022/11/22 03:15:37;;;;;;;2.53;2.00;;;;;;;18.04;45.81;99079.72;5023369;28;20041;-59
2022/11/22 03:18:04;;;;;;;2.95;1.92;;;;;;;18.09;45.50;99096.06;5023694;28;20061;-59
2022/11/22 03:20:29;;;;;;;2.10;1.85;;;;;;;18.10;45.47;99102.31;5023482;28;20081;-59
2022/11/22 03:22:55;;;;;;;2.22;1.80;;;;;;;18.09;45.39;99093.38;5023325;28;20112;-58
2022/11/22 03:25:20;;;;;;;2.28;2.00;;;;;;;18.07;45.51;99091.94;5023544;28;20029;-58
2022/11/22 03:27:45;;;;;;;2.45;1.73;;;;;;;18.02;45.45;99079.13;5022996;28;20049;-56
2022/11/22 03:30:12;;;;;;;3.75;1.92;;;;;;;18.08;45.68;99094.44;5005755;28;20411;-58
2022/11/22 03:32:37;;;;;;;2.55;1.73;;;;;;;18.07;45.57;99095.47;5023211;28;20033;-59
2022/11/22 03:35:03;;;;;;;2.53;2.05;;;;;;;18.01;45.46;99082.88;5026197;28;20033;-58
2022/11/22 03:37:28;;;;;;;2.40;1.70;;;;;;;18.07;45.54;99098.16;5027327;28;20479;-58
2022/11/22 03:39:53;;;;;;;3.60;1.90;;;;;;;18.08;45.39;99107.03;5027224;28;20425;-57
2022/11/22 03:42:18;;;;;;;2.25;1.75;;;;;;;18.08;45.72;99123.19;5026653;28;20025;-58
2022/11/22 03:44:44;;;;;;;2.55;2.08;;;;;;;17.99;45.64;99107.25;5027528;28;20022;-58
2022/11/22 03:47:09;;;;;;;2.58;1.58;;;;;;;17.99;45.70;99118.00;5026801;28;20022;-58
2022/11/22 03:49:34;;;;;;;2.50;1.50;;;;;;;18.06;45.64;99128.78;5027544;28;20053;-59
2022/11/22 03:51:59;;;;;;;2.58;1.95;;;;;;;18.06;45.67;99131.47;5026941;28;20029;-59
2022/11/22 03:54:25;;;;;;;2.35;1.80;;;;;;;17.94;45.51;99114.28;5027120;28;20084;-59
2022/11/22 03:56:50;;;;;;;2.60;1.67;;;;;;;17.79;45.72;99078.69;5026446;28;20054;-58
2022/11/22 03:59:15;;;;;;;2.13;1.70;;;;;;;18.03;45.42;99122.97;5027139;28;20033;-59
2022/11/22 04:01:40;;;;;;;3.17;2.00;;;;;;;18.05;45.67;99126.28;5026429;28;20089;-58
2022/11/22 04:04:05;;;;;;;3.10;2.00;;;;;;;18.04;45.62;99125.44;5026978;28;20030;-58
2022/11/22 04:06:31;;;;;;;3.38;1.90;;;;;;;18.05;45.65;99131.66;5026651;28;20487;-58
2022/11/22 04:08:56;;;;;;;2.78;1.90;;;;;;;18.04;45.53;99138.91;5026787;28;20100;-58
2022/11/22 04:11:21;;;;;;;2.13;1.63;;;;;;;17.97;45.50;99132.72;5025973;28;20117;-58
2022/11/22 04:16:30;;;;;;;1.90;1.45;;;;;;;18.03;45.47;99139.94;5026185;28;20032;-58
2022/11/22 04:18:56;;;;;;;2.08;1.60;;;;;;;18.03;45.48;99148.00;5026550;28;20117;-58
2022/11/22 04:21:33;;;;;;;2.70;1.58;;;;;;;17.86;45.64;99119.84;5026242;28;20037;-59
2022/11/22 04:26:47;;;;;;;2.30;1.40;;;;;;;18.04;45.42;99156.91;5026017;28;20054;-58
2022/11/22 04:29:13;;;;;;;3.08;1.70;;;;;;;18.03;45.72;99158.75;5026580;28;20034;-58
2022/11/22 04:34:23;;;;;;;2.80;1.83;;;;;;;18.03;45.47;99168.69;5026615;28;20033;-59
2022/11/22 04:36:48;;;;;;;2.22;1.70;;;;;;;18.03;45.40;99157.94;5025785;28;20034;-59
2022/11/22 04:39:13;;;;;;;1.92;1.60;;;;;;;17.85;45.59;99137.03;5026109;28;20041;-59
2022/11/22 04:41:38;;;;;;;2.08;1.50;;;;;;;17.96;45.52;99164.13;5025474;28;20032;-58
2022/11/22 04:46:47;;;;;;;2.03;1.63;;;;;;;17.97;45.56;99157.72;5024926;28;20036;-59
2022/11/22 04:49:13;;;;;;;2.30;1.58;;;;;;;18.00;45.49;99167.22;5026331;28;20030;-58
2022/11/22 04:54:38;;;;;;;2.65;1.55;;;;;;;18.01;45.42;99160.00;4946055;29;20116;-58
2022/11/22 04:57:04;;;;;;;3.00;1.92;;;;;;;18.01;45.36;99168.06;4945286;29;20067;-58
2022/11/22 04:59:29;;;;;;;1.77;1.42;;;;;;;18.00;45.79;99167.22;4945854;29;20069;-58
2022/11/22 05:01:54;;;;;;;2.00;1.40;;;;;;;17.99;45.40;99161.03;4945069;29;20035;-59
2022/11/22 05:04:19;;;;;;;3.65;1.40;;;;;;;17.98;45.56;99156.69;4945883;29;20032;-58
2022/11/22 05:06:45;;;;;;;1.95;1.70;;;;;;;17.98;45.48;99159.38;4945021;29;20525;-58
2022/11/22 05:09:10;;;;;;;3.17;1.70;;;;;;;17.98;45.36;99167.44;4944458;29;20044;-58
2022/11/22 05:11:35;;;;;;;2.40;1.58;;;;;;;17.98;45.67;99164.75;4944621;29;20030;-58
2022/11/22 05:14:00;;;;;;;2.60;1.73;;;;;;;17.99;45.44;99169.09;4945548;29;20035;-58
2022/11/22 05:16:26;;;;;;;2.17;1.92;;;;;;;17.98;45.67;99163.94;4943630;29;20043;-58
2022/11/22 05:19:00;;;;;;;2.58;1.67;;;;;;;17.98;45.81;99177.38;4946320;29;20043;-58
2022/11/22 05:21:26;;;;;;;3.88;2.17;;;;;;;17.93;45.80;99166.41;4945570;29;20063;-58
2022/11/22 05:23:55;;;;;;;3.40;1.80;;;;;;;17.97;45.81;99167.66;4944035;29;20055;-58
2022/11/22 05:26:38;;;;;;;2.22;1.58;;;;;;;17.98;45.82;99178.19;4941088;29;20043;-57
2022/11/22 05:29:08;;;;;;;2.10;1.40;;;;;;;17.99;45.70;99179.84;4999274;28;20018;-59
2022/11/22 05:31:35;;;;;;;3.83;1.92;;;;;;;17.99;45.92;99177.16;5024809;28;20025;-58
2022/11/22 05:34:00;;;;;;;3.90;1.83;;;;;;;17.97;45.79;99173.88;5022280;28;20018;-58
2022/11/22 05:36:26;;;;;;;3.83;1.80;;;;;;;18.00;45.77;99186.06;5024370;28;20056;-59
2022/11/22 05:38:52;;;;;;;2.38;1.55;;;;;;;18.01;45.92;99186.88;5024976;28;20108;-59
2022/11/22 05:41:17;;;;;;;2.28;1.50;;;;;;;17.96;46.19;99185.63;5024360;28;20034;-56
2022/11/22 05:43:43;;;;;;;3.03;1.70;;;;;;;18.02;46.38;99193.94;5024923;28;20033;-59
2022/11/22 05:46:23;;;;;;;2.88;1.70;;;;;;;17.99;46.08;99185.22;5023702;28;20030;-58
2022/11/22 05:48:48;;;;;;;5.00;2.13;;;;;;;18.02;46.18;99193.94;5023112;28;20056;-58
2022/11/22 05:51:16;;;;;;;1.50;1.40;;;;;;;18.02;46.46;99192.06;5023845;28;20018;-58
2022/11/22 05:53:42;;;;;;;2.50;1.40;;;;;;;18.02;46.24;99188.56;5019599;28;20046;-58
2022/11/22 05:56:09;;;;;;;2.40;1.50;;;;;;;18.04;46.46;99186.47;5023889;28;20026;-58
2022/11/22 05:58:35;;;;;;;3.50;1.52;;;;;;;17.96;46.34;99174.03;5024520;28;20025;-58
2022/11/22 06:01:02;;;;;;;2.20;1.40;;;;;;;18.04;46.50;99187.31;5024098;28;20451;-58
2022/11/22 06:03:27;;;;;;;2.83;1.77;;;;;;;18.07;46.36;99196.84;5023878;28;20026;-58
2022/11/22 06:05:53;;;;;;;2.25;1.30;;;;;;;18.06;46.90;99184.44;5022399;28;20053;-57
2022/11/22 06:08:18;;;;;;;7.43;1.77;;;;;;;18.06;46.79;99190.63;5019211;28;20036;-57
2022/11/22 06:10:43;;;;;;;3.15;1.40;;;;;;;18.04;46.73;99189.16;5022229;28;20018;-58
2022/11/22 06:13:08;;;;;;;3.17;1.73;;;;;;;18.02;46.32;99188.56;5022021;28;20030;-58
2022/11/22 06:15:34;;;;;;;1.65;1.17;;;;;;;18.04;46.58;99189.16;5023274;28;20496;-58
2022/11/22 06:17:59;;;;;;;2.28;1.27;;;;;;;18.06;46.41;99197.88;5023729;28;20036;-59
2022/11/22 06:20:24;;;;;;;2.65;1.58;;;;;;;18.06;46.63;99203.25;5022680;28;20042;-57
2022/11/22 06:22:49;;;;;;;1.83;1.50;;;;;;;17.95;46.62;99183.16;5023503;28;20042;-58
2022/11/22 06:25:15;;;;;;;2.17;1.60;;;;;;;18.05;46.62;99215.03;5023135;28;20040;-59
2022/11/22 06:27:40;;;;;;;2.67;1.40;;;;;;;18.04;46.42;99202.63;5025968;28;20030;-57
2022/11/22 06:30:06;;;;;;;2.13;1.30;;;;;;;18.05;46.27;99207.78;5023748;28;20088;-57
2022/11/22 06:32:32;;;;;;;2.80;1.45;;;;;;;18.05;46.60;99217.72;5023193;28;20033;-58
2022/11/22 06:34:58;;;;;;;3.00;1.75;;;;;;;18.06;46.30;99225.59;5023843;28;20022;-59
2022/11/22 06:37:23;;;;;;;2.97;1.45;;;;;;;18.04;46.56;99216.88;5023203;28;20028;-58
2022/11/22 06:39:49;;;;;;;2.08;1.38;;;;;;;18.06;46.71;99214.00;5018761;28;20033;-59
2022/11/22 06:42:14;;;;;;;2.35;1.50;;;;;;;18.05;46.60;99217.72;5013897;28;20562;-58
2022/11/22 06:44:39;;;;;;;2.67;1.35;;;;;;;18.05;46.66;99218.53;5020476;28;20065;-57
2022/11/22 06:47:05;;;;;;;2.38;1.23;;;;;;;18.06;46.74;99228.28;5023157;28;20045;-58
2022/11/22 06:49:30;;;;;;;2.70;1.40;;;;;;;18.07;46.46;99224.56;5023437;28;20026;-59
2022/11/22 06:51:55;;;;;;;4.15;2.03;;;;;;;18.06;46.79;99222.91;5024327;28;20041;-59
2022/11/22 06:54:20;;;;;;;3.53;1.90;;;;;;;18.04;46.76;99224.94;5024146;28;20048;-58
2022/11/22 06:56:45;;;;;;;1.98;1.55;;;;;;;18.06;46.70;99236.34;5022176;28;20053;-58
2022/11/22 06:59:11;;;;;;;1.95;1.40;;;;;;;18.08;46.61;99236.97;5023855;28;20025;-59
2022/11/22 07:01:37;;;;;;;2.47;1.42;;;;;;;18.09;46.87;99233.22;5023006;28;20036;-59
2022/11/22 07:04:03;;;;;;;4.45;1.85;;;;;;;18.10;46.29;99237.59;5023553;28;20076;-59
2022/11/22 07:06:31;;;;;;;2.50;1.55;;;;;;;18.10;46.69;99236.78;5023114;28;20025;-59
2022/11/22 07:08:57;;;;;;;3.05;1.48;;;;;;;18.10;46.53;99231.41;5025897;28;20030;-58
2022/11/22 07:11:25;;;;;;;3.55;1.65;;;;;;;18.10;46.48;99231.41;5029441;28;20122;-59
2022/11/22 07:13:50;;;;;;;2.25;1.52;;;;;;;18.11;46.65;99235.75;4996318;28;20017;-58
2022/11/22 07:16:18;;;;;;;4.45;1.60;;;;;;;18.09;46.35;99241.31;5029739;28;20032;-58
2022/11/22 07:18:43;;;;;;;3.63;1.65;;;;;;;18.08;46.36;99244.22;5012710;28;20040;-58
2022/11/22 07:21:11;;;;;;;2.67;1.80;;;;;;;18.09;46.57;99244.00;5029427;28;20089;-58
2022/11/22 07:23:37;;;;;;;3.20;1.67;;;;;;;18.07;46.31;99246.06;5029970;28;20455;-58
2022/11/22 07:26:02;;;;;;;2.50;1.35;;;;;;;18.09;46.41;99252.06;5012140;28;20528;-59
2022/11/22 07:28:28;;;;;;;3.60;1.92;;;;;;;18.09;46.38;99249.38;5026131;28;20026;-58
2022/11/22 07:30:57;;;;;;;2.17;1.23;;;;;;;18.09;46.49;99246.69;5019538;28;20688;-59
2022/11/22 07:33:23;;;;;;;2.97;1.40;;;;;;;18.05;46.39;99239.22;5002904;28;20037;-59
2022/11/22 07:35:49;;;;;;;1.90;1.33;;;;;;;18.11;46.20;99238.44;5017934;28;20025;-58
2022/11/22 07:38:14;;;;;;;2.53;1.40;;;;;;;18.10;46.61;99247.53;5019747;28;20033;-59
2022/11/22 07:40:39;;;;;;;3.63;2.00;;;;;;;18.11;46.43;99251.88;5018428;28;20030;-59
2022/11/22 07:43:05;;;;;;;3.42;1.70;;;;;;;18.13;46.50;99256.00;5024634;28;20219;-59
2022/11/22 07:45:30;;;;;;;1.90;1.40;;;;;;;18.15;46.52;99255.81;5029757;28;20077;-59
2022/11/22 07:47:59;;;;;;;2.33;1.50;;;;;;;18.13;46.67;99256.00;5029740;28;20517;-57
2022/11/22 07:50:24;;;;;;;2.35;1.20;;;;;;;18.13;46.44;99261.38;5030001;28;20014;-59
2022/11/22 07:52:59;;;;;;;4.00;1.58;;;;;;;17.98;46.35;99237.34;5028706;28;20044;-60
2022/11/22 07:55:25;;;;;;;3.28;1.38;;;;;;;18.13;46.71;99260.56;5029589;28;20049;-59
2022/11/22 07:57:51;;;;;;;5.68;1.40;;;;;;;18.11;46.34;99258.06;5029150;28;20177;-60
2022/11/22 08:00:17;;;;;;;4.18;1.40;;;;;;;18.12;46.25;99265.09;5029252;28;20614;-60
2022/11/22 08:02:43;;;;;;;3.78;1.88;;;;;;;18.11;46.40;99276.91;5029721;28;20030;-60
2022/11/22 08:05:08;;;;;;;3.78;1.40;;;;;;;18.11;46.50;99268.84;5029771;28;20026;-59
2022/11/22 08:07:34;;;;;;;4.00;2.22;;;;;;;18.11;46.19;99273.41;5029584;28;20083;-59
2022/11/22 08:09:59;;;;;;;4.32;1.23;;;;;;;18.11;46.23;99276.91;5028984;28;20052;-59
2022/11/22 08:12:24;;;;;;;3.20;1.38;;;;;;;18.12;45.88;99281.25;5029019;28;20033;-59
2022/11/22 08:14:49;;;;;;;3.97;1.52;;;;;;;18.10;46.07;99277.94;5029866;28;20033;-59
2022/11/22 08:17:15;;;;;;;4.20;1.27;;;;;;;18.07;46.04;99278.34;5028905;28;20251;-59
2022/11/22 08:19:40;;;;;;;4.25;1.48;;;;;;;18.08;46.47;99277.31;5028936;28;20057;-60
2022/11/22 08:22:05;;;;;;;3.38;1.40;;;;;;;18.07;45.98;99286.41;5007125;28;20057;-58
2022/11/22 08:24:30;;;;;;;3.92;1.90;;;;;;;18.07;46.24;99282.91;5026448;28;20049;-60
2022/11/22 08:26:56;;;;;;;2.80;1.40;;;;;;;18.05;46.19;99279.56;5008384;28;20037;-59
2022/11/22 08:29:21;;;;;;;3.88;1.42;;;;;;;18.04;46.23;99292.19;5026517;28;20030;-60
2022/11/22 08:31:46;;;;;;;4.20;1.70;;;;;;;18.05;46.11;99287.63;5026614;28;20026;-58
2022/11/22 08:34:12;;;;;;;4.18;1.40;;;;;;;18.05;46.16;99284.94;5027043;28;20026;-60
2022/11/22 08:36:37;;;;;;;3.28;1.50;;;;;;;18.04;45.91;99270.66;5026380;28;20040;-60
2022/11/22 08:39:02;;;;;;;3.30;1.40;;;;;;;18.06;45.84;99284.75;5026758;28;20040;-59
2022/11/22 08:41:28;;;;;;;2.78;1.20;;;;;;;18.06;46.00;99286.63;5008009;28;20057;-59
2022/11/22 08:43:53;;;;;;;2.75;1.45;;;;;;;18.06;46.02;99287.44;5026698;28;20022;-60
2022/11/22 08:46:19;;;;;;;2.00;1.23;;;;;;;18.07;46.02;99288.28;5025668;28;20617;-60
2022/11/22 08:48:44;;;;;;;3.53;1.45;;;;;;;18.07;45.89;99290.97;5025792;28;20458;-59
2022/11/22 08:51:11;;;;;;;3.78;1.67;;;;;;;18.07;45.78;99286.41;5026470;28;20086;-59
2022/11/22 08:53:38;;;;;;;3.63;1.65;;;;;;;18.08;45.80;99287.22;5026445;28;20073;-60
2022/11/22 08:56:05;;;;;;;3.58;1.70;;;;;;;18.08;45.66;99285.38;5025727;28;20022;-60
2022/11/22 08:58:32;;;;;;;2.47;1.15;;;;;;;18.10;45.65;99293.25;5026058;28;20080;-60
2022/11/22 09:01:06;;;;;;;5.55;1.98;;;;;;;18.11;45.93;99306.50;5026241;28;20037;-60
2022/11/22 09:03:33;;;;;;;3.95;1.45;;;;;;;18.06;45.76;99292.84;5025450;28;20028;-59
2022/11/22 09:06:02;;;;;;;4.78;1.40;;;;;;;18.08;45.68;99285.38;5010971;28;20040;-59
2022/11/22 09:08:28;;;;;;;3.92;1.50;;;;;;;18.13;45.65;99299.03;5026012;28;20390;-59
2022/11/22 09:10:53;;;;;;;3.05;1.30;;;;;;;18.13;45.57;99292.84;5025934;28;20845;-58
2022/11/22 09:13:18;;;;;;;3.17;1.40;;;;;;;18.13;45.85;99295.53;5025181;28;20030;-59
2022/11/22 09:15:43;;;;;;;2.70;1.65;;;;;;;18.12;45.69;99302.75;5025177;28;20021;-59
2022/11/22 09:18:08;;;;;;;3.47;1.45;;;;;;;18.15;45.48;99315.00;5025056;28;20097;-59
2022/11/22 09:20:34;;;;;;;3.83;1.60;;;;;;;18.15;45.57;99315.00;5025488;28;20038;-59
2022/11/22 09:23:00;;;;;;;3.80;1.40;;;;;;;18.15;45.35;99321.19;5025243;28;20046;-59
2022/11/22 09:25:25;;;;;;;1.45;1.10;;;;;;;18.14;45.56;99313.34;5025406;28;20068;-58
2022/11/22 09:27:50;;;;;;;3.05;1.60;;;;;;;18.15;46.00;99328.44;5025067;28;20093;-59
2022/11/22 09:30:15;;;;;;;4.25;1.65;;;;;;;18.14;45.34;99324.94;5025528;28;20037;-59
2022/11/22 09:32:43;;;;;;;2.50;1.40;;;;;;;18.14;45.33;99327.63;5024947;28;20025;-59
2022/11/22 09:35:08;;;;;;;2.78;1.50;;;;;;;18.13;45.10;99323.25;5025344;28;20065;-59
2022/11/22 09:37:33;;;;;;;2.25;1.20;;;;;;;18.17;45.30;99331.75;5024875;28;20033;-59
2022/11/22 09:39:59;;;;;;;3.10;1.35;;;;;;;18.19;45.32;99324.31;5025121;28;20061;-59
2022/11/22 09:42:30;;;;;;;1.75;1.20;;;;;;;18.21;45.09;99333.00;5024289;28;20422;-59
2022/11/22 09:45:10;;;;;;;3.15;1.83;;;;;;;18.22;44.97;99324.75;5025171;28;20029;-59
2022/11/22 09:47:47;;;;;;;2.47;1.35;;;;;;;18.24;44.94;99324.53;5024675;28;20032;-60
2022/11/22 09:50:23;;;;;;;2.58;1.42;;;;;;;18.26;44.75;99330.53;5025080;28;20021;-60
2022/11/22 09:52:56;;;;;;;2.30;1.30;;;;;;;18.28;45.09;99325.78;5024787;28;20029;-60
2022/11/22 09:55:29;;;;;;;2.50;1.83;;;;;;;18.31;45.03;99327.22;5007485;28;20098;-59
2022/11/22 09:58:27;;;;;;;3.38;1.48;;;;;;;18.33;44.93;99335.94;5007247;28;20029;-60
2022/11/22 10:00:56;;;;;;;2.47;1.27;;;;;;;18.30;44.87;99328.25;5021429;28;20042;-59
2022/11/22 10:03:28;;;;;;;4.10;1.77;;;;;;;18.33;44.60;99331.38;5024949;28;20037;-59
2022/11/22 10:05:56;;;;;;;5.97;1.40;;;;;;;18.33;44.90;99334.06;5007289;28;20026;-60
2022/11/22 10:08:47;;;;;;;2.67;1.20;;;;;;;18.31;44.84;99324.53;5024540;28;20109;-60
2022/11/22 10:11:43;;;;;;;2.33;1.30;;;;;;;18.30;44.77;99326.41;5006655;28;20025;-60
2022/11/22 10:14:29;;;;;;;3.80;1.45;;;;;;;18.30;44.85;99323.72;4985828;28;20046;-59
2022/11/22 10:17:41;;;;;;;3.17;1.30;;;;;;;18.19;44.60;99308.19;5006420;28;20029;-60
2022/11/22 10:20:21;;;;;;;1.08;0.98;;;;;;;18.24;44.61;99306.53;4962143;29;20047;-60
2022/11/22 10:22:47;;;;;;;2.40;1.20;;;;;;;18.30;44.68;99321.03;4947355;29;20062;-60
2022/11/22 10:25:29;;;;;;;1.80;1.25;;;;;;;18.29;44.81;99323.91;4947273;29;20058;-60
2022/11/22 10:28:00;;;;;;;3.05;1.30;;;;;;;18.31;44.67;99335.28;4946811;29;20067;-60
2022/11/22 10:30:30;;;;;;;3.50;1.52;;;;;;;18.31;44.68;99321.84;4947371;29;20094;-60
2022/11/22 10:33:01;;;;;;;3.42;1.70;;;;;;;18.32;44.61;99318.16;4947184;29;20035;-60
2022/11/22 10:35:42;;;;;;;3.10;1.35;;;;;;;18.30;44.46;99321.03;4963095;29;20099;-59
2022/11/22 10:38:34;;;;;;;3.08;1.20;;;;;;;18.32;44.66;99318.16;4946991;29;20047;-60
2022/11/22 10:41:37;;;;;;;3.25;1.30;;;;;;;18.32;44.74;99316.28;4962826;29;20032;-60
2022/11/22 10:44:15;;;;;;;3.47;1.40;;;;;;;18.34;44.43;99306.13;4924296;29;20048;-60
2022/11/22 10:47:04;;;;;;;3.22;1.23;;;;;;;18.35;44.81;99309.63;4923500;29;20044;-60
2022/11/22 10:49:38;;;;;;;2.60;1.20;;;;;;;18.36;44.54;99314.84;4925039;29;20028;-60
2022/11/22 10:52:29;;;;;;;2.42;1.40;;;;;;;18.36;44.67;99322.09;5001796;28;20089;-60
2022/11/22 10:55:00;;;;;;;2.17;1.27;;;;;;;18.34;44.51;99319.59;5004545;28;20480;-60
2022/11/22 10:57:36;;;;;;;5.97;2.53;;;;;;;18.26;44.54;99303.63;5003571;28;20251;-60
2022/11/22 11:00:08;;;;;;;1.73;1.20;;;;;;;18.30;44.63;99318.31;4987050;28;20042;-60
2022/11/22 11:02:45;;;;;;;2.92;1.30;;;;;;;18.30;44.48;99301.34;5004021;28;20084;-60
2022/11/22 11:05:13;;;;;;;1.83;1.10;;;;;;;18.21;44.71;99293.47;5004263;28;20113;-60
2022/11/22 11:07:46;;;;;;;2.10;1.23;;;;;;;18.28;44.66;99300.75;5003798;28;20026;-60
2022/11/22 11:10:22;;;;;;;2.45;1.17;;;;;;;18.27;44.48;99308.00;5003013;28;20030;-60
2022/11/22 11:12:58;;;;;;;3.15;1.30;;;;;;;18.18;44.41;99287.66;5005158;28;20029;-59
2022/11/22 11:15:27;;;;;;;2.00;1.20;;;;;;;18.25;44.84;99299.28;5023729;28;20100;-60
2022/11/22 11:17:57;;;;;;;2.85;1.10;;;;;;;18.23;44.67;99290.59;5001898;28;20034;-60
2022/11/22 11:20:29;;;;;;;2.40;1.40;;;;;;;18.25;44.88;99296.59;5010111;28;20037;-60
2022/11/22 11:22:55;;;;;;;1.85;1.10;;;;;;;18.24;44.54;99287.69;5005858;28;20052;-60
2022/11/22 11:25:39;;;;;;;2.40;1.25;;;;;;;18.25;45.06;99283.13;5023654;28;20053;-60
2022/11/22 11:28:17;;;;;;;2.00;1.20;;;;;;;18.24;44.63;99279.63;4989472;28;20116;-60
2022/11/22 11:30:45;;;;;;;2.78;1.25;;;;;;;18.26;44.89;99284.78;5023945;28;20022;-60
2022/11/22 11:33:38;;;;;;;2.30;1.33;;;;;;;18.27;44.80;99286.47;5005878;28;20038;-60
2022/11/22 11:36:21;;;;;;;1.75;1.10;;;;;;;18.26;44.60;99279.41;5003232;28;20038;-60
2022/11/22 11:38:55;;;;;;;5.45;1.65;;;;;;;18.26;44.86;99282.09;5005843;28;20028;-60
2022/11/22 11:41:24;;;;;;;3.33;1.27;;;;;;;18.26;44.75;99276.72;5022957;28;20045;-60
2022/11/22 11:43:50;;;;;;;;;;;;;;;18.28;44.79;99288.13;5023640;28;20069;-59
2022/11/22 11:46:23;;;;;;;1.63;1.08;;;;;;;18.25;44.77;99275.06;5023282;28;19920;-60
2022/11/22 11:48:53;;;;;;;3.50;1.30;;;;;;;18.25;44.83;99280.44;5021716;28;20030;-60
2022/11/22 11:51:24;;;;;;;2.03;1.17;;;;;;;18.23;44.83;99280.66;5014495;28;20029;-60
2022/11/22 11:54:10;;;;;;;2.35;0.98;;;;;;;18.21;44.90;99288.09;5022322;28;20041;-60